Tasman Sea — WDB5559 — position and weather

sailwx.info

Track history (hours):
 
Tides and Currents Weather Stations Pressure Air Temp Water Temp Dewpoint Dewpoint Depression Visibility Wind Speed Wind Dir Waves Ship Positions

Tasman Sea

Owner: Kirby Offshore Marine, LLC, Staten Island, NY. More information available from US FCC via Universal Licensing System and Coast Guard Vessel Documentation Center.

Last reported at 2017-Feb-21 09:22 UTC. Time now 2017-Feb-21 19:05 UTC.
Position N 42°17' W 070°18'.

Length 151 m; draft 5.3 m.

Type: . MMSI: 366910960.

Date/timePositionNaut miles runAvg speedWind from/ knotsBaromVisibWave heightAir tempDewpointWater temp
2017-Feb-21 09:22N 42°17' W 070°18'8 9.2
2017-Feb-21 08:33N 42°24' W 070°14'9 9.1
2017-Feb-21 07:33N 42°32' W 070°08'9 9.1
2017-Feb-21 06:33N 42°40' W 070°03'  
2017-Feb-19 00:28N 43°05' W 070°18'7 7.4
2017-Feb-18 23:33N 42°58' W 070°21'7 7.5
2017-Feb-18 22:33N 42°51' W 070°24'8 7.5
2017-Feb-18 21:33N 42°44' W 070°27'7 7.3
2017-Feb-18 20:33N 42°37' W 070°30'8 7.5
2017-Feb-18 19:33N 42°32' W 070°38'8 7.5
2017-Feb-18 18:33N 42°28' W 070°46'7 7.4
2017-Feb-18 17:33N 42°23' W 070°54'6 5.8
2017-Feb-18 16:33N 42°21' W 071°01'3 2.9
2017-Feb-18 15:33N 42°24' W 071°01'0 0.1
2017-Feb-18 14:33N 42°24' W 071°01'0 0.0
2017-Feb-17 23:08N 42°24' W 071°01'0 0.3
2017-Feb-17 22:33N 42°24' W 071°01'2 2.4
2017-Feb-17 21:33N 42°22' W 071°02'0 0.2
2017-Feb-17 20:33N 42°21' W 071°02'0 0.0
2017-Feb-17 19:33N 42°21' W 071°02'0 0.0
2017-Feb-17 18:33N 42°21' W 071°02'0 0.0
2017-Feb-17 17:33N 42°21' W 071°02'0 0.0
2017-Feb-17 16:33N 42°21' W 071°02'0 0.0
2017-Feb-17 15:33N 42°21' W 071°02'1 0.5
2017-Feb-17 14:33N 42°21' W 071°02'5 5.0
2017-Feb-17 13:33N 42°22' W 070°55'6 6.3
2017-Feb-17 12:33N 42°22' W 070°46'7 6.7
2017-Feb-17 11:33N 42°17' W 070°40'7 6.5
2017-Feb-17 10:29N 42°11' W 070°36'98 5.7
2017-Feb-16 17:23N 41°11' W 072°20'5 5.7
2017-Feb-16 16:29N 41°10' W 072°26'64 7.1
2017-Feb-16 07:33N 40°50' W 073°47'6 5.6
2017-Feb-16 06:33N 40°48' W 073°54'7 7.1
2017-Feb-16 05:33N 40°42' W 073°59'7 6.6
2017-Feb-16 04:33N 40°36' W 074°02'1 0.8
2017-Feb-16 03:33N 40°36' W 074°01'0 0.1
2017-Feb-16 02:27N 40°36' W 074°02'0 0.3
2017-Feb-16 01:33N 40°36' W 074°02'5 4.7
2017-Feb-16 00:33N 40°39' W 074°06'5 4.8
2017-Feb-15 23:33N 40°37' W 074°12'5 4.8
2017-Feb-15 22:33N 40°33' W 074°15'0 0.1
2017-Feb-15 21:12N 40°33' W 074°15'0 0.0
2017-Feb-15 20:30N 40°33' W 074°15'5 4.8
2017-Feb-15 19:33N 40°37' W 074°12'3 2.6
2017-Feb-15 18:33N 40°39' W 074°10'3 3.2
2017-Feb-15 17:33N 40°36' W 074°12'3 0.5
2017-Feb-15 11:20N 40°33' W 074°14'1 0.1
2017-Feb-15 02:33N 40°33' W 074°15'1 1.2
2017-Feb-15 01:33N 40°33' W 074°14'6 6.3
2017-Feb-15 00:33N 40°39' W 074°10'4 4.3
2017-Feb-14 23:33N 40°40' W 074°04'0 0.2
2017-Feb-14 22:33N 40°39' W 074°04'4 4.4
2017-Feb-14 21:33N 40°39' W 074°10'0 0.0
2017-Feb-14 20:33N 40°39' W 074°10'0 0.0
2017-Feb-14 19:33N 40°39' W 074°10'0 0.0
2017-Feb-14 18:33N 40°39' W 074°10'0 0.0
2017-Feb-14 17:33N 40°39' W 074°10'0 0.0
2017-Feb-14 16:33N 40°39' W 074°10'0 0.0
2017-Feb-14 15:33N 40°39' W 074°10'0 0.0
2017-Feb-14 14:33N 40°39' W 074°10'4 4.4
2017-Feb-14 13:33N 40°40' W 074°04'0 0.0
2017-Feb-14 12:33N 40°40' W 074°04'0 0.0
2017-Feb-14 11:33N 40°40' W 074°04'0 0.0
2017-Feb-14 10:27N 40°40' W 074°04'0 0.0
2017-Feb-14 09:33N 40°40' W 074°04'0 0.0
2017-Feb-14 08:33N 40°40' W 074°04'0 0.0
2017-Feb-14 07:33N 40°40' W 074°04'0 0.0
2017-Feb-14 06:33N 40°40' W 074°04'0 0.0
2017-Feb-14 05:33N 40°40' W 074°04'0 0.0
2017-Feb-14 04:33N 40°40' W 074°04'0 0.0
2017-Feb-14 03:33N 40°40' W 074°04'0 0.0
2017-Feb-14 02:33N 40°40' W 074°04'0 0.0
2017-Feb-14 01:33N 40°40' W 074°04'0 0.0
2017-Feb-14 00:33N 40°40' W 074°04'0 0.0
2017-Feb-13 23:33N 40°40' W 074°04'0 0.0
2017-Feb-13 22:30N 40°40' W 074°04'0 0.0
2017-Feb-13 21:33N 40°40' W 074°04'0 0.0
2017-Feb-13 20:33N 40°40' W 074°04'0 0.0
2017-Feb-13 19:33N 40°40' W 074°04'0 0.0
2017-Feb-13 18:33N 40°40' W 074°04'0 0.0
2017-Feb-13 17:33N 40°40' W 074°04'0 0.0
2017-Feb-13 16:33N 40°40' W 074°04'0 0.0
2017-Feb-13 15:33N 40°40' W 074°04'0 0.0
2017-Feb-13 14:33N 40°40' W 074°04'0 0.0
2017-Feb-13 13:33N 40°40' W 074°04'0 0.0
2017-Feb-13 12:33N 40°40' W 074°04'0 0.0
2017-Feb-13 11:33N 40°40' W 074°04'0 0.0
2017-Feb-13 10:33N 40°40' W 074°04'0 0.0
2017-Feb-13 09:33N 40°40' W 074°04'0 0.0
2017-Feb-13 08:33N 40°40' W 074°04'0 0.0
2017-Feb-13 07:33N 40°40' W 074°04'0 0.0
2017-Feb-13 06:33N 40°40' W 074°04'0 0.0
2017-Feb-13 05:33N 40°40' W 074°04'0 0.0
2017-Feb-13 04:33N 40°40' W 074°04'0 0.0
2017-Feb-13 03:33N 40°40' W 074°04'0 0.0
2017-Feb-13 02:33N 40°40' W 074°04'0 0.0
2017-Feb-13 01:33N 40°40' W 074°04'0 0.0
2017-Feb-13 00:33N 40°40' W 074°04'0 0.0
2017-Feb-12 23:33N 40°40' W 074°04'0 0.0
2017-Feb-12 22:30N 40°40' W 074°04'0 0.0
2017-Feb-12 21:33N 40°40' W 074°04'0 0.0
2017-Feb-12 20:32N 40°40' W 074°04'0 0.0
2017-Feb-12 19:32N 40°40' W 074°04'0 0.0
2017-Feb-12 18:34N 40°40' W 074°04'0 0.0
2017-Feb-12 17:31N 40°40' W 074°04'0 0.0
2017-Feb-12 16:31N 40°40' W 074°04'0 0.0
2017-Feb-12 15:31N 40°40' W 074°04'2 1.6
2017-Feb-12 14:32N 40°40' W 074°02'0 0.0
2017-Feb-12 13:32N 40°40' W 074°02'0 0.1
2017-Feb-12 12:33N 40°40' W 074°02'8 8.4
2017-Feb-12 11:33N 40°32' W 074°01'10 9.7
2017-Feb-12 10:30N 40°28' W 073°49'179 7.3
2017-Feb-11 10:06N 42°08' W 070°31'5 8.6
2017-Feb-11 09:33N 42°13' W 070°30'  
Track history (hours):
 
Tides and Currents Weather Stations Pressure Air Temp Water Temp Dewpoint Dewpoint Depression Visibility Wind Speed Wind Dir Waves Ship Positions

Tasman Sea

Owner: Kirby Offshore Marine, LLC, Staten Island, NY. More information available from US FCC via Universal Licensing System and Coast Guard Vessel Documentation Center.

Last reported at 2017-Feb-21 09:22 UTC. Time now 2017-Feb-21 19:05 UTC.
Position N 42°17' W 070°18'.

Length 151 m; draft 5.3 m.

Type: . MMSI: 366910960.

Date/timePositionNaut miles runAvg speedWind from/ knotsBaromVisibWave heightAir tempDewpointWater temp
2017-Feb-21 09:22N 42°17' W 070°18'8 9.2
2017-Feb-21 08:33N 42°24' W 070°14'9 9.1
2017-Feb-21 07:33N 42°32' W 070°08'9 9.1
2017-Feb-21 06:33N 42°40' W 070°03'  
2017-Feb-19 00:28N 43°05' W 070°18'7 7.4
2017-Feb-18 23:33N 42°58' W 070°21'7 7.5
2017-Feb-18 22:33N 42°51' W 070°24'8 7.5
2017-Feb-18 21:33N 42°44' W 070°27'7 7.3
2017-Feb-18 20:33N 42°37' W 070°30'8 7.5
2017-Feb-18 19:33N 42°32' W 070°38'8 7.5
2017-Feb-18 18:33N 42°28' W 070°46'7 7.4
2017-Feb-18 17:33N 42°23' W 070°54'6 5.8
2017-Feb-18 16:33N 42°21' W 071°01'3 2.9
2017-Feb-18 15:33N 42°24' W 071°01'0 0.1
2017-Feb-18 14:33N 42°24' W 071°01'0 0.0
2017-Feb-17 23:08N 42°24' W 071°01'0 0.3
2017-Feb-17 22:33N 42°24' W 071°01'2 2.4
2017-Feb-17 21:33N 42°22' W 071°02'0 0.2
2017-Feb-17 20:33N 42°21' W 071°02'0 0.0
2017-Feb-17 19:33N 42°21' W 071°02'0 0.0
2017-Feb-17 18:33N 42°21' W 071°02'0 0.0
2017-Feb-17 17:33N 42°21' W 071°02'0 0.0
2017-Feb-17 16:33N 42°21' W 071°02'0 0.0
2017-Feb-17 15:33N 42°21' W 071°02'1 0.5
2017-Feb-17 14:33N 42°21' W 071°02'5 5.0
2017-Feb-17 13:33N 42°22' W 070°55'6 6.3
2017-Feb-17 12:33N 42°22' W 070°46'7 6.7
2017-Feb-17 11:33N 42°17' W 070°40'7 6.5
2017-Feb-17 10:29N 42°11' W 070°36'98 5.7
2017-Feb-16 17:23N 41°11' W 072°20'5 5.7
2017-Feb-16 16:29N 41°10' W 072°26'64 7.1
2017-Feb-16 07:33N 40°50' W 073°47'6 5.6
2017-Feb-16 06:33N 40°48' W 073°54'7 7.1
2017-Feb-16 05:33N 40°42' W 073°59'7 6.6
2017-Feb-16 04:33N 40°36' W 074°02'1 0.8
2017-Feb-16 03:33N 40°36' W 074°01'0 0.1
2017-Feb-16 02:27N 40°36' W 074°02'0 0.3
2017-Feb-16 01:33N 40°36' W 074°02'5 4.7
2017-Feb-16 00:33N 40°39' W 074°06'5 4.8
2017-Feb-15 23:33N 40°37' W 074°12'5 4.8
2017-Feb-15 22:33N 40°33' W 074°15'0 0.1
2017-Feb-15 21:12N 40°33' W 074°15'0 0.0
2017-Feb-15 20:30N 40°33' W 074°15'5 4.8
2017-Feb-15 19:33N 40°37' W 074°12'3 2.6
2017-Feb-15 18:33N 40°39' W 074°10'3 3.2
2017-Feb-15 17:33N 40°36' W 074°12'3 0.5
2017-Feb-15 11:20N 40°33' W 074°14'1 0.1
2017-Feb-15 02:33N 40°33' W 074°15'1 1.2
2017-Feb-15 01:33N 40°33' W 074°14'6 6.3
2017-Feb-15 00:33N 40°39' W 074°10'4 4.3
2017-Feb-14 23:33N 40°40' W 074°04'0 0.2
2017-Feb-14 22:33N 40°39' W 074°04'4 4.4
2017-Feb-14 21:33N 40°39' W 074°10'0 0.0
2017-Feb-14 20:33N 40°39' W 074°10'0 0.0
2017-Feb-14 19:33N 40°39' W 074°10'0 0.0
2017-Feb-14 18:33N 40°39' W 074°10'0 0.0
2017-Feb-14 17:33N 40°39' W 074°10'0 0.0
2017-Feb-14 16:33N 40°39' W 074°10'0 0.0
2017-Feb-14 15:33N 40°39' W 074°10'0 0.0
2017-Feb-14 14:33N 40°39' W 074°10'4 4.4
2017-Feb-14 13:33N 40°40' W 074°04'0 0.0
2017-Feb-14 12:33N 40°40' W 074°04'0 0.0
2017-Feb-14 11:33N 40°40' W 074°04'0 0.0
2017-Feb-14 10:27N 40°40' W 074°04'0 0.0
2017-Feb-14 09:33N 40°40' W 074°04'0 0.0
2017-Feb-14 08:33N 40°40' W 074°04'0 0.0
2017-Feb-14 07:33N 40°40' W 074°04'0 0.0
2017-Feb-14 06:33N 40°40' W 074°04'0 0.0
2017-Feb-14 05:33N 40°40' W 074°04'0 0.0
2017-Feb-14 04:33N 40°40' W 074°04'0 0.0
2017-Feb-14 03:33N 40°40' W 074°04'0 0.0
2017-Feb-14 02:33N 40°40' W 074°04'0 0.0
2017-Feb-14 01:33N 40°40' W 074°04'0 0.0
2017-Feb-14 00:33N 40°40' W 074°04'0 0.0
2017-Feb-13 23:33N 40°40' W 074°04'0 0.0
2017-Feb-13 22:30N 40°40' W 074°04'0 0.0
2017-Feb-13 21:33N 40°40' W 074°04'0 0.0
2017-Feb-13 20:33N 40°40' W 074°04'0 0.0
2017-Feb-13 19:33N 40°40' W 074°04'0 0.0
2017-Feb-13 18:33N 40°40' W 074°04'0 0.0
2017-Feb-13 17:33N 40°40' W 074°04'0 0.0
2017-Feb-13 16:33N 40°40' W 074°04'0 0.0
2017-Feb-13 15:33N 40°40' W 074°04'0 0.0
2017-Feb-13 14:33N 40°40' W 074°04'0 0.0
2017-Feb-13 13:33N 40°40' W 074°04'0 0.0
2017-Feb-13 12:33N 40°40' W 074°04'0 0.0
2017-Feb-13 11:33N 40°40' W 074°04'0 0.0
2017-Feb-13 10:33N 40°40' W 074°04'0 0.0
2017-Feb-13 09:33N 40°40' W 074°04'0 0.0
2017-Feb-13 08:33N 40°40' W 074°04'0 0.0
2017-Feb-13 07:33N 40°40' W 074°04'0 0.0
2017-Feb-13 06:33N 40°40' W 074°04'0 0.0
2017-Feb-13 05:33N 40°40' W 074°04'0 0.0
2017-Feb-13 04:33N 40°40' W 074°04'0 0.0
2017-Feb-13 03:33N 40°40' W 074°04'0 0.0
2017-Feb-13 02:33N 40°40' W 074°04'0 0.0
2017-Feb-13 01:33N 40°40' W 074°04'0 0.0
2017-Feb-13 00:33N 40°40' W 074°04'0 0.0
2017-Feb-12 23:33N 40°40' W 074°04'0 0.0
2017-Feb-12 22:30N 40°40' W 074°04'0 0.0
2017-Feb-12 21:33N 40°40' W 074°04'0 0.0
2017-Feb-12 20:32N 40°40' W 074°04'0 0.0
2017-Feb-12 19:32N 40°40' W 074°04'0 0.0
2017-Feb-12 18:34N 40°40' W 074°04'0 0.0
2017-Feb-12 17:31N 40°40' W 074°04'0 0.0
2017-Feb-12 16:31N 40°40' W 074°04'0 0.0
2017-Feb-12 15:31N 40°40' W 074°04'2 1.6
2017-Feb-12 14:32N 40°40' W 074°02'0 0.0
2017-Feb-12 13:32N 40°40' W 074°02'0 0.1
2017-Feb-12 12:33N 40°40' W 074°02'8 8.4
2017-Feb-12 11:33N 40°32' W 074°01'10 9.7
2017-Feb-12 10:30N 40°28' W 073°49'179 7.3
2017-Feb-11 10:06N 42°08' W 070°31'5 8.6
2017-Feb-11 09:33N 42°13' W 070°30'  

Dump ship's entire track history